Terminal Aerodrome Forecast
Issued by NWS

Home | Current Version | Previous Version | Text Only | Print | Product List | Glossary On
Versions: 1 2 3 4 5 6 7 8 9 10 11 12 13 14
000
FTUS45 KPSR 282320
TAFIWA
TAF
KIWA 282320Z 2900/2924 28012G20KT P6SM FEW100
     FM290200 28006KT P6SM SKC
     FM290500 10006KT P6SM SKC
      TEMPO 2915/2919 04008KT
     FM292100 33008KT P6SM SKC
      AMD LTD TO CLD VIS AND WIND 2903/2913=

USA.gov is the U.S. government's official web portal to all federal, state and local government web resources and services.